createdAt,value
2022-09-05T00:00:17.939Z,17.30
2022-09-05T00:02:53.498Z,17.20
2022-09-05T00:05:51.053Z,17.40
2022-09-05T00:08:39.112Z,17.90
2022-09-05T00:11:41.178Z,17.20
2022-09-05T00:14:53.210Z,17.10
2022-09-05T00:17:39.454Z,16.90
2022-09-05T00:24:21.602Z,16.90
2022-09-05T00:24:32.400Z,16.50
2022-09-05T00:26:30.096Z,17.80
2022-09-05T00:29:12.469Z,16.70
2022-09-05T00:31:57.368Z,17.50
2022-09-05T00:34:47.735Z,17.90
2022-09-05T00:37:28.669Z,17.20
2022-09-05T00:40:17.632Z,17.00
2022-09-05T00:42:50.470Z,16.80
2022-09-05T00:45:25.321Z,17.10
2022-09-05T00:48:00.036Z,17.10
2022-09-05T00:50:37.826Z,17.10
2022-09-05T00:53:12.375Z,17.20
2022-09-05T00:55:47.759Z,16.80
2022-09-05T00:58:38.433Z,17.60
2022-09-05T01:01:21.719Z,17.10
2022-09-05T01:04:05.786Z,17.10
2022-09-05T01:06:49.197Z,17.20
2022-09-05T01:09:34.689Z,16.90
2022-09-05T01:12:16.190Z,17.10
2022-09-05T01:15:03.785Z,17.10
2022-09-05T01:17:39.017Z,17.10
2022-09-05T01:20:31.398Z,16.90
2022-09-05T01:23:48.597Z,16.80
2022-09-05T01:26:50.571Z,16.70
2022-09-05T01:29:28.295Z,16.90
2022-09-05T01:32:25.033Z,16.80
2022-09-05T01:35:02.662Z,16.90
2022-09-05T01:37:38.639Z,16.90
2022-09-05T01:40:20.705Z,17.30
2022-09-05T01:43:06.524Z,17.10
2022-09-05T01:45:50.729Z,17.10
2022-09-05T01:48:31.287Z,17.20
2022-09-05T01:51:28.375Z,17.10
2022-09-05T01:54:10.117Z,17.40
2022-09-05T01:57:01.726Z,16.30
2022-09-05T01:59:40.532Z,16.80
2022-09-05T02:02:37.224Z,17.00
2022-09-05T02:05:16.972Z,15.90
2022-09-05T02:08:27.367Z,16.40
2022-09-05T02:11:04.422Z,16.60
2022-09-05T02:13:46.260Z,16.60
2022-09-05T02:16:22.299Z,16.30
2022-09-05T02:18:58.814Z,15.90
2022-09-05T02:21:56.753Z,16.30
2022-09-05T02:24:34.746Z,15.60
2022-09-05T02:27:44.461Z,16.10
2022-09-05T02:30:10.588Z,15.80
2022-09-05T02:32:52.615Z,16.90
2022-09-05T02:35:31.230Z,16.10
2022-09-05T02:40:31.213Z,15.80
2022-09-05T02:45:08.005Z,15.80
2022-09-05T02:45:14.212Z,15.90
2022-09-05T02:46:51.122Z,15.60
2022-09-05T02:52:32.641Z,15.80
2022-09-05T02:57:33.266Z,15.90
2022-09-05T02:57:37.964Z,16.20
2022-09-05T02:58:53.280Z,15.70
2022-09-05T03:01:33.291Z,15.80
2022-09-05T03:04:15.520Z,15.50
2022-09-05T03:06:52.399Z,16.00
2022-09-05T03:09:39.104Z,15.30
2022-09-05T03:12:30.742Z,15.80
2022-09-05T03:15:38.496Z,15.50
2022-09-05T03:18:29.961Z,15.50
2022-09-05T03:21:39.705Z,15.40
2022-09-05T03:24:41.625Z,15.50
2022-09-05T03:28:14.759Z,15.60
2022-09-05T03:31:07.225Z,15.40
2022-09-05T03:34:41.940Z,14.70
2022-09-05T03:37:40.264Z,15.80
2022-09-05T03:40:30.027Z,15.30
2022-09-05T03:43:26.060Z,15.50
2022-09-05T03:46:12.307Z,15.30
2022-09-05T03:50:53.167Z,15.30
2022-09-05T03:57:05.781Z,15.30
2022-09-05T03:57:15.203Z,15.40
2022-09-05T03:59:13.148Z,15.30
2022-09-05T04:02:40.353Z,14.70
2022-09-05T04:08:18.261Z,15.50
2022-09-05T04:08:24.462Z,14.80
2022-09-05T04:10:43.071Z,15.00
2022-09-05T04:13:22.058Z,15.20
2022-09-05T04:16:02.883Z,15.20
2022-09-05T04:18:38.038Z,15.30
2022-09-05T04:21:13.577Z,15.20
2022-09-05T04:24:08.415Z,15.00
2022-09-05T04:27:00.559Z,15.20
2022-09-05T04:29:42.533Z,15.20
2022-09-05T04:32:25.698Z,15.10
2022-09-05T04:35:08.280Z,15.30
2022-09-05T04:37:49.389Z,15.20
2022-09-05T04:40:40.963Z,15.50
2022-09-05T04:43:16.203Z,15.20
2022-09-05T04:45:49.896Z,15.60
2022-09-05T04:48:22.253Z,15.50
2022-09-05T04:51:06.101Z,15.20
2022-09-05T04:53:45.821Z,15.30
2022-09-05T04:56:19.541Z,16.00
2022-09-05T05:00:36.781Z,15.40
2022-09-05T05:06:03.643Z,15.10
2022-09-05T05:07:31.916Z,15.40
2022-09-05T05:10:45.324Z,15.60
2022-09-05T05:17:58.993Z,15.40
2022-09-05T05:18:08.954Z,15.30
2022-09-05T05:19:04.907Z,15.40
2022-09-05T05:21:36.213Z,15.40
2022-09-05T05:24:12.335Z,15.50
2022-09-05T05:26:46.760Z,15.90
2022-09-05T05:29:22.112Z,15.50
2022-09-05T05:31:54.250Z,15.70
2022-09-05T05:34:26.587Z,15.60
2022-09-05T05:37:00.721Z,15.90
2022-09-05T05:39:31.065Z,15.90
2022-09-05T05:42:19.416Z,15.80
2022-09-05T05:44:53.928Z,15.60
2022-09-05T05:47:32.027Z,16.10
2022-09-05T05:50:11.673Z,15.70
2022-09-05T05:52:58.677Z,15.90
2022-09-05T05:55:53.710Z,16.10
2022-09-05T05:58:50.671Z,15.80
2022-09-05T06:01:52.070Z,17.00
2022-09-05T06:04:50.792Z,16.60
2022-09-05T06:07:33.368Z,16.00
2022-09-05T06:15:01.054Z,16.70
2022-09-05T06:15:01.182Z,16.60
2022-09-05T06:18:03.470Z,16.80
2022-09-05T06:22:09.314Z,16.90
2022-09-05T06:24:40.308Z,17.00
2022-09-05T06:27:34.472Z,17.40
2022-09-05T06:30:19.119Z,17.40
2022-09-05T06:33:03.852Z,17.20
2022-09-05T06:35:40.147Z,18.00
2022-09-05T06:38:29.220Z,17.80
2022-09-05T06:41:13.583Z,17.50
2022-09-05T06:44:22.285Z,17.90
2022-09-05T06:47:22.238Z,18.60
2022-09-05T06:50:26.964Z,18.30
2022-09-05T06:53:56.742Z,18.30
2022-09-05T06:56:46.279Z,18.80
2022-09-05T06:59:45.812Z,18.80
2022-09-05T07:02:48.400Z,18.50
2022-09-05T07:05:37.943Z,18.90
2022-09-05T07:08:35.808Z,19.30
2022-09-05T07:11:16.364Z,19.10
2022-09-05T07:13:57.445Z,19.30
2022-09-05T07:16:38.969Z,18.90
2022-09-05T07:19:27.154Z,17.40
2022-09-05T07:22:47.431Z,20.30
2022-09-05T07:25:18.783Z,19.70
2022-09-05T07:28:26.099Z,19.20
2022-09-05T07:30:49.824Z,20.10
2022-09-05T07:33:21.114Z,20.20
2022-09-05T07:35:51.419Z,20.40
2022-09-05T07:38:26.468Z,20.30
2022-09-05T07:41:22.105Z,20.30
2022-09-05T07:43:55.090Z,20.60
2022-09-05T07:46:28.792Z,20.80
2022-09-05T07:49:00.649Z,21.10
2022-09-05T07:56:46.362Z,21.10
2022-09-05T07:56:54.488Z,21.10
2022-09-05T07:57:30.060Z,21.30
2022-09-05T08:00:04.647Z,21.50
2022-09-05T08:02:34.540Z,21.50
2022-09-05T08:05:06.958Z,21.60
2022-09-05T08:07:49.061Z,21.60
2022-09-05T08:10:30.937Z,21.30
2022-09-05T08:13:24.022Z,22.00
2022-09-05T08:16:06.650Z,20.20
2022-09-05T08:18:45.189Z,22.10
2022-09-05T08:21:27.141Z,22.30
2022-09-05T08:24:00.632Z,22.30
2022-09-05T08:26:39.301Z,22.60
2022-09-05T08:29:12.614Z,22.60
2022-09-05T08:31:46.475Z,22.90
2022-09-05T08:34:24.850Z,23.10
2022-09-05T08:37:12.312Z,23.20
2022-09-05T08:39:42.725Z,23.20
2022-09-05T08:42:24.460Z,23.80
2022-09-05T08:46:44.680Z,24.60
2022-09-05T08:48:07.350Z,24.80
2022-09-05T08:51:01.329Z,24.90
2022-09-05T08:53:46.492Z,25.50
2022-09-05T08:56:22.030Z,26.40
2022-09-05T08:59:28.838Z,27.10
2022-09-05T09:02:46.660Z,27.40
2022-09-05T09:05:02.318Z,27.70
2022-09-05T09:07:50.550Z,28.20
2022-09-05T09:10:34.892Z,28.50
2022-09-05T09:13:13.985Z,28.70
2022-09-05T09:15:47.029Z,29.00
2022-09-05T09:18:17.329Z,29.20
2022-09-05T09:20:54.448Z,29.30
2022-09-05T09:23:45.922Z,29.30
2022-09-05T09:26:16.836Z,29.10
2022-09-05T09:28:52.253Z,29.40
2022-09-05T09:31:52.865Z,29.50
2022-09-05T09:34:49.244Z,29.80
2022-09-05T09:37:51.678Z,29.60
2022-09-05T09:41:02.159Z,29.30
2022-09-05T09:43:44.221Z,29.60
2022-09-05T09:46:30.592Z,29.90
2022-09-05T09:49:23.004Z,29.80
2022-09-05T09:52:22.102Z,29.60
2022-09-05T09:55:39.100Z,29.40
2022-09-05T09:58:32.681Z,29.30
2022-09-05T10:01:36.438Z,29.70
2022-09-05T10:10:38.734Z,29.80
2022-09-05T10:10:46.918Z,29.90
2022-09-05T10:11:34.023Z,29.80
2022-09-05T10:14:49.584Z,30.10
2022-09-05T10:17:55.601Z,30.30
2022-09-05T10:21:15.686Z,30.30
2022-09-05T10:24:15.495Z,30.10
2022-09-05T10:27:19.749Z,30.10
2022-09-05T10:30:14.903Z,29.90
2022-09-05T10:35:14.559Z,30.10
2022-09-05T10:36:22.211Z,29.90
2022-09-05T10:39:13.470Z,29.90
2022-09-05T10:41:49.983Z,30.00
2022-09-05T10:44:29.406Z,30.30
2022-09-05T10:47:10.227Z,30.30
2022-09-05T10:49:44.119Z,30.50
2022-09-05T10:52:19.457Z,30.10
2022-09-05T10:55:14.536Z,29.90
2022-09-05T10:57:57.848Z,29.90
2022-09-05T11:02:24.226Z,30.00
2022-09-05T11:03:45.282Z,30.00
2022-09-05T11:06:20.863Z,29.90
2022-09-05T11:09:03.044Z,29.70
2022-09-05T11:11:41.223Z,29.50
2022-09-05T11:14:31.178Z,29.50
2022-09-05T11:17:07.007Z,29.50
2022-09-05T11:19:43.423Z,29.70
2022-09-05T11:22:24.079Z,29.60
2022-09-05T11:24:56.650Z,29.60
2022-09-05T11:27:32.544Z,29.60
2022-09-05T11:30:06.325Z,29.40
2022-09-05T11:39:10.760Z,29.60
2022-09-05T11:39:51.880Z,29.50
2022-09-05T11:40:10.268Z,29.50
2022-09-05T11:42:19.272Z,29.40
2022-09-05T11:45:28.653Z,30.00
2022-09-05T11:48:24.971Z,30.50
2022-09-05T11:51:33.968Z,30.80
2022-09-05T11:54:38.291Z,30.80
2022-09-05T11:57:34.225Z,30.40
2022-09-05T12:00:31.707Z,30.40
2022-09-05T12:03:57.446Z,30.60
2022-09-05T12:07:26.346Z,30.50
2022-09-05T12:10:46.622Z,30.00
2022-09-05T12:13:21.780Z,29.50
2022-09-05T12:16:08.559Z,29.50
2022-09-05T12:21:38.870Z,30.20
2022-09-05T12:25:24.846Z,30.60
2022-09-05T12:27:35.961Z,30.50
2022-09-05T12:30:01.046Z,30.30
2022-09-05T12:35:35.299Z,30.20
2022-09-05T12:40:40.392Z,30.50
2022-09-05T12:41:41.300Z,29.90
2022-09-05T12:41:46.048Z,30.80
2022-09-05T12:42:10.054Z,30.20
2022-09-05T12:44:45.645Z,31.10
2022-09-05T12:47:19.412Z,31.30
2022-09-05T12:50:02.586Z,31.50
2022-09-05T12:52:42.753Z,31.60
2022-09-05T12:55:20.487Z,31.80
2022-09-05T13:03:02.202Z,31.60
2022-09-05T13:03:06.456Z,31.50
2022-09-05T13:03:53.564Z,31.30
2022-09-05T13:06:30.171Z,31.30
2022-09-05T13:09:03.483Z,31.10
2022-09-05T13:14:50.555Z,31.40
2022-09-05T13:14:54.035Z,31.40
2022-09-05T13:17:18.181Z,31.60
2022-09-05T13:19:52.379Z,31.70
2022-09-05T13:22:23.338Z,31.90
2022-09-05T13:24:59.628Z,31.80
2022-09-05T13:27:31.867Z,31.80
2022-09-05T13:31:19.839Z,32.10
2022-09-05T13:37:59.532Z,31.90
2022-09-05T13:38:17.981Z,31.40
2022-09-05T13:39:01.034Z,31.20
2022-09-05T13:41:31.927Z,31.40
2022-09-05T13:44:26.536Z,31.40
2022-09-05T13:46:59.062Z,31.30
2022-09-05T13:49:33.229Z,31.30
2022-09-05T13:52:18.201Z,31.20
2022-09-05T13:54:51.695Z,31.40
2022-09-05T13:57:40.346Z,31.40
2022-09-05T14:00:54.238Z,31.50
2022-09-05T14:04:01.935Z,31.50
2022-09-05T14:07:43.787Z,31.30
2022-09-05T14:10:07.129Z,31.40
2022-09-05T14:12:40.177Z,31.50
2022-09-05T14:15:30.505Z,31.30
2022-09-05T14:18:12.773Z,31.20
2022-09-05T14:21:12.729Z,31.20
2022-09-05T14:23:56.001Z,31.00
2022-09-05T14:26:30.995Z,30.90
2022-09-05T14:29:06.509Z,31.10
2022-09-05T14:37:37.384Z,31.00
2022-09-05T14:37:54.599Z,31.00
2022-09-05T14:38:04.408Z,30.90
2022-09-05T14:41:10.075Z,31.10
2022-09-05T14:44:15.608Z,31.10
2022-09-05T14:47:09.962Z,31.10
2022-09-05T14:50:29.285Z,30.80
2022-09-05T14:57:23.313Z,30.50
2022-09-05T15:02:43.484Z,30.70
2022-09-05T15:02:56.710Z,31.00
2022-09-05T15:04:55.788Z,31.30
2022-09-05T15:07:26.858Z,31.50
2022-09-05T15:12:22.947Z,31.60
2022-09-05T15:13:25.699Z,31.80
2022-09-05T15:16:02.924Z,32.00
2022-09-05T15:18:33.671Z,32.10
2022-09-05T15:21:33.534Z,31.90
2022-09-05T15:24:17.016Z,31.80
2022-09-05T15:26:54.399Z,31.70
2022-09-05T15:29:25.676Z,31.60
2022-09-05T15:32:09.015Z,31.60
2022-09-05T15:34:39.735Z,31.60
2022-09-05T15:37:24.340Z,31.60
2022-09-05T15:40:02.665Z,31.50
2022-09-05T15:42:34.579Z,31.40
2022-09-05T15:45:10.113Z,31.60
2022-09-05T15:47:41.694Z,31.70
2022-09-05T15:50:22.133Z,31.70
2022-09-05T15:52:55.641Z,31.70
2022-09-05T15:55:26.668Z,31.70
2022-09-05T15:58:00.111Z,31.60
2022-09-05T16:00:51.239Z,31.70
2022-09-05T16:04:47.804Z,31.70
2022-09-05T16:10:30.494Z,31.70
2022-09-05T16:10:59.201Z,31.60
2022-09-05T16:12:16.384Z,31.50
2022-09-05T16:16:44.719Z,31.30
2022-09-05T16:23:13.583Z,31.20
2022-09-05T16:23:17.947Z,31.20
2022-09-05T16:23:42.037Z,31.20
2022-09-05T16:26:25.746Z,31.10
2022-09-05T16:28:59.708Z,31.10
2022-09-05T16:31:37.482Z,30.90
2022-09-05T16:34:11.801Z,30.70
2022-09-05T16:37:04.517Z,30.70
2022-09-05T16:39:39.475Z,30.70
2022-09-05T16:42:16.439Z,30.70
2022-09-05T16:44:50.033Z,30.60
2022-09-05T16:47:25.653Z,30.40
2022-09-05T16:50:03.424Z,30.30
2022-09-05T16:52:53.170Z,30.20
2022-09-05T16:55:31.036Z,30.10
2022-09-05T16:58:08.954Z,30.00
2022-09-05T17:00:50.809Z,29.80
2022-09-05T17:03:32.880Z,29.60
2022-09-05T17:06:14.375Z,29.40
2022-09-05T17:09:03.216Z,29.30
2022-09-05T17:11:51.015Z,28.90
2022-09-05T17:14:35.185Z,28.60
2022-09-05T17:17:19.666Z,28.40
2022-09-05T17:20:06.315Z,28.30
2022-09-05T17:27:13.228Z,28.20
2022-09-05T17:29:25.034Z,27.80
2022-09-05T17:29:49.644Z,28.00
2022-09-05T17:31:56.841Z,27.90
2022-09-05T17:35:16.513Z,27.90
2022-09-05T17:38:19.018Z,27.80
2022-09-05T17:41:20.676Z,27.80
2022-09-05T17:43:52.612Z,27.70
2022-09-05T17:46:25.695Z,27.70
2022-09-05T17:49:20.086Z,27.60
2022-09-05T17:52:18.409Z,27.60
2022-09-05T17:54:50.341Z,27.30
2022-09-05T17:57:41.225Z,27.10
2022-09-05T18:00:49.496Z,26.90
2022-09-05T18:04:06.780Z,26.60
2022-09-05T18:06:59.677Z,26.20
2022-09-05T18:10:11.965Z,25.80
2022-09-05T18:13:13.839Z,25.50
2022-09-05T18:16:10.577Z,25.30
2022-09-05T18:19:28.440Z,25.10
2022-09-05T18:21:48.111Z,25.00
2022-09-05T18:24:24.870Z,24.90
2022-09-05T18:30:25.264Z,24.50
2022-09-05T18:34:03.329Z,24.30
2022-09-05T18:36:35.180Z,24.20
2022-09-05T18:39:42.968Z,24.10
2022-09-05T18:42:26.568Z,23.90
2022-09-05T18:45:15.454Z,23.80
2022-09-05T18:47:53.114Z,23.70
2022-09-05T18:50:32.324Z,23.70
2022-09-05T18:53:09.409Z,23.60
2022-09-05T18:56:14.216Z,23.70
2022-09-05T18:58:34.367Z,23.70
2022-09-05T19:01:21.761Z,23.70
2022-09-05T19:03:52.426Z,23.60
2022-09-05T19:06:37.050Z,23.60
2022-09-05T19:09:08.390Z,23.70
2022-09-05T19:11:53.133Z,23.70
2022-09-05T19:14:33.254Z,23.60
2022-09-05T19:17:08.863Z,23.50
2022-09-05T19:20:31.609Z,23.50
2022-09-05T19:23:10.341Z,23.40
2022-09-05T19:25:43.444Z,23.30
2022-09-05T19:34:53.161Z,23.20
2022-09-05T19:36:55.080Z,23.10
2022-09-05T19:37:13.589Z,22.90
2022-09-05T19:37:30.415Z,22.90
2022-09-05T19:42:20.017Z,22.90
2022-09-05T19:47:31.655Z,22.80
2022-09-05T19:47:51.106Z,22.70
2022-09-05T19:48:25.260Z,22.80
2022-09-05T19:50:57.199Z,22.70
2022-09-05T19:53:26.061Z,22.60
2022-09-05T19:55:54.832Z,22.60
2022-09-05T19:58:24.824Z,22.60
2022-09-05T20:01:04.032Z,22.70
2022-09-05T20:03:39.424Z,22.70
2022-09-05T20:06:30.202Z,22.60
2022-09-05T20:09:10.541Z,22.60
2022-09-05T20:11:46.015Z,22.60
2022-09-05T20:14:20.117Z,22.80
2022-09-05T20:16:49.983Z,22.80
2022-09-05T20:19:35.766Z,22.90
2022-09-05T20:22:18.726Z,22.90
2022-09-05T20:24:57.493Z,23.00
2022-09-05T20:27:28.543Z,23.00
2022-09-05T20:30:01.078Z,23.10
2022-09-05T20:32:40.002Z,24.50
2022-09-05T20:43:07.947Z,23.20
2022-09-05T20:43:19.665Z,23.10
2022-09-05T20:43:36.696Z,22.90
2022-09-05T20:43:58.030Z,22.80
2022-09-05T20:48:21.929Z,22.80
2022-09-05T20:54:12.984Z,22.90
2022-09-05T20:54:18.398Z,22.90
2022-09-05T20:55:38.268Z,22.90
2022-09-05T20:58:10.120Z,23.00
2022-09-05T21:00:40.207Z,22.90
2022-09-05T21:03:12.520Z,22.80
2022-09-05T21:05:43.983Z,22.90
2022-09-05T21:08:23.294Z,22.90
2022-09-05T21:10:56.373Z,23.00
2022-09-05T21:13:27.652Z,23.00
2022-09-05T21:15:56.854Z,23.10
2022-09-05T21:18:33.335Z,23.10
2022-09-05T21:21:27.915Z,23.10
2022-09-05T21:24:18.232Z,23.10
2022-09-05T21:26:52.452Z,23.20
2022-09-05T21:29:27.430Z,23.20
2022-09-05T21:32:06.331Z,23.20
2022-09-05T21:34:45.184Z,22.90
2022-09-05T21:37:16.081Z,23.10
2022-09-05T21:39:59.169Z,23.10
2022-09-05T21:46:00.535Z,23.10
2022-09-05T21:47:50.092Z,23.10
2022-09-05T21:48:10.513Z,23.10
2022-09-05T21:50:42.482Z,23.00
2022-09-05T21:55:37.213Z,23.00
2022-09-05T21:59:16.894Z,22.90
2022-09-05T21:59:20.937Z,23.00
2022-09-05T22:01:52.439Z,22.80
2022-09-05T22:04:22.409Z,22.80
2022-09-05T22:06:53.132Z,22.80
2022-09-05T22:09:22.716Z,22.80
2022-09-05T22:11:51.407Z,22.70
2022-09-05T22:14:22.581Z,22.70
2022-09-05T22:16:52.695Z,22.60
2022-09-05T22:19:26.244Z,22.50
2022-09-05T22:22:16.011Z,22.40
2022-09-05T22:24:48.812Z,22.50
2022-09-05T22:27:20.079Z,22.50
2022-09-05T22:29:50.625Z,22.40
2022-09-05T22:32:33.784Z,22.40
2022-09-05T22:35:27.528Z,22.30
2022-09-05T22:37:59.165Z,22.30
2022-09-05T22:40:29.243Z,22.20
2022-09-05T22:42:58.456Z,22.20
2022-09-05T22:45:29.110Z,22.10
2022-09-05T22:47:57.614Z,22.10
2022-09-05T22:50:26.233Z,22.10
2022-09-05T22:52:54.398Z,22.00
2022-09-05T22:55:22.534Z,19.40
2022-09-05T22:57:50.609Z,21.80
2022-09-05T23:00:18.975Z,21.70
2022-09-05T23:02:52.435Z,22.10
2022-09-05T23:05:21.362Z,21.40
2022-09-05T23:07:49.558Z,21.40
2022-09-05T23:10:17.831Z,21.40
2022-09-05T23:12:46.135Z,21.40
2022-09-05T23:15:14.373Z,21.30
2022-09-05T23:17:42.556Z,21.10
2022-09-05T23:20:12.471Z,21.10
2022-09-05T23:22:40.582Z,21.00
2022-09-05T23:25:09.699Z,20.90
2022-09-05T23:27:38.369Z,20.80
2022-09-05T23:30:08.350Z,20.70
2022-09-05T23:32:36.466Z,20.80
2022-09-05T23:35:04.983Z,20.20
2022-09-05T23:37:34.541Z,20.80
2022-09-05T23:40:02.769Z,20.80
2022-09-05T23:42:31.729Z,20.80
2022-09-05T23:44:59.839Z,20.80
2022-09-05T23:47:29.694Z,20.80
2022-09-05T23:49:58.060Z,20.90
2022-09-05T23:52:26.145Z,20.90
2022-09-05T23:54:56.726Z,20.90
2022-09-05T23:57:25.910Z,20.90
2022-09-05T23:59:54.007Z,20.80
